createdAt,value
2023-04-16T00:02:19.926Z,100665.91
2023-04-16T00:05:22.508Z,100664.13
2023-04-16T00:08:25.190Z,100675.63
2023-04-16T00:11:27.569Z,100679.09
2023-04-16T00:14:30.570Z,100680.91
2023-04-16T00:17:33.123Z,100684.47
2023-04-16T00:20:35.849Z,100682.66
2023-04-16T00:23:38.492Z,100687.06
2023-04-16T00:26:41.256Z,100675.47
2023-04-16T00:29:43.600Z,100665.78
2023-04-16T00:32:46.554Z,100677.22
2023-04-16T00:35:49.361Z,100677.25
2023-04-16T00:38:52.103Z,100681.63
2023-04-16T00:41:54.693Z,100677.28
2023-04-16T00:44:57.332Z,100682.44
2023-04-16T00:48:00.622Z,100690.50
2023-04-16T00:51:05.966Z,100686.97
2023-04-16T00:54:08.960Z,100696.63
2023-04-16T00:57:14.489Z,100696.63
2023-04-16T01:00:17.184Z,100708.13
2023-04-16T01:03:20.116Z,100702.81
2023-04-16T01:06:24.018Z,100698.41
2023-04-16T01:09:26.767Z,100706.38
2023-04-16T01:12:29.199Z,100701.94
2023-04-16T01:15:32.029Z,100701.94
2023-04-16T01:18:34.997Z,100707.16
2023-04-16T01:21:37.749Z,100698.34
2023-04-16T01:24:40.660Z,100707.22
2023-04-16T01:27:49.977Z,100709.06
2023-04-16T01:30:52.401Z,100707.25
2023-04-16T01:34:24.420Z,100697.56
2023-04-16T01:37:27.223Z,100698.44
2023-04-16T01:40:30.125Z,100701.94
2023-04-16T01:43:32.598Z,100692.22
2023-04-16T01:46:36.262Z,100701.97
2023-04-16T01:49:38.788Z,100701.88
2023-04-16T01:52:42.118Z,100692.19
2023-04-16T01:55:44.567Z,100691.31
2023-04-16T01:58:47.610Z,100694.88
2023-04-16T02:01:52.308Z,100693.91
2023-04-16T02:04:56.543Z,100691.25
2023-04-16T02:07:58.976Z,100698.28
2023-04-16T02:11:02.165Z,100689.38
2023-04-16T02:14:04.934Z,100694.59
2023-04-16T02:17:10.106Z,100698.16
2023-04-16T02:20:15.100Z,100699.84
2023-04-16T02:23:28.390Z,100707.00
2023-04-16T02:26:33.439Z,100711.38
2023-04-16T02:29:41.862Z,100711.44
2023-04-16T02:32:49.933Z,100713.13
2023-04-16T02:35:53.686Z,100713.06
2023-04-16T02:38:56.221Z,100702.44
2023-04-16T02:42:00.826Z,100713.94
2023-04-16T02:45:03.439Z,100710.44
2023-04-16T02:48:07.644Z,100713.03
2023-04-16T02:51:10.173Z,100719.28
2023-04-16T02:54:12.765Z,100713.97
2023-04-16T02:57:15.126Z,100713.94
2023-04-16T03:00:18.016Z,100722.84
2023-04-16T03:03:21.534Z,100726.38
2023-04-16T03:06:24.381Z,100728.16
2023-04-16T03:09:27.262Z,100739.59
2023-04-16T03:12:29.918Z,100742.31
2023-04-16T03:15:32.457Z,100750.25
2023-04-16T03:18:35.238Z,100750.19
2023-04-16T03:21:37.585Z,100754.56
2023-04-16T03:24:40.212Z,100748.28
2023-04-16T03:27:43.033Z,100756.28
2023-04-16T03:30:53.934Z,100766.09
2023-04-16T03:33:56.302Z,100758.22
2023-04-16T03:36:59.149Z,100762.53
2023-04-16T03:40:01.895Z,100767.03
2023-04-16T03:43:05.042Z,100759.19
2023-04-16T03:46:08.590Z,100769.78
2023-04-16T03:49:11.796Z,100776.75
2023-04-16T03:52:14.501Z,100775.84
2023-04-16T03:55:17.518Z,100775.91
2023-04-16T03:58:21.295Z,100785.69
2023-04-16T04:01:24.124Z,100781.16
2023-04-16T04:04:27.942Z,100774.13
2023-04-16T04:07:30.676Z,100784.72
2023-04-16T04:10:36.737Z,100782.97
2023-04-16T04:13:41.093Z,100776.88
2023-04-16T04:16:43.823Z,100778.66
2023-04-16T04:20:00.157Z,100789.25
2023-04-16T04:23:05.285Z,100788.41
2023-04-16T04:26:08.212Z,100786.63
2023-04-16T04:29:11.318Z,100788.50
2023-04-16T04:32:17.064Z,100793.84
2023-04-16T04:35:21.793Z,100795.59
2023-04-16T04:38:25.628Z,100796.47
2023-04-16T04:41:28.933Z,100799.09
2023-04-16T04:44:31.861Z,100803.53
2023-04-16T04:47:34.491Z,100796.50
2023-04-16T04:50:37.257Z,100797.34
2023-04-16T04:53:39.804Z,100807.97
2023-04-16T04:56:42.469Z,100805.25
2023-04-16T04:59:44.878Z,100813.31
2023-04-16T05:02:49.866Z,100812.38
2023-04-16T05:05:52.415Z,100812.22
2023-04-16T05:08:55.547Z,100822.09
2023-04-16T05:11:57.979Z,100819.47
2023-04-16T05:15:00.811Z,100820.41
2023-04-16T05:18:03.325Z,100825.69
2023-04-16T05:21:06.251Z,100819.53
2023-04-16T05:24:08.696Z,100823.97
2023-04-16T05:27:11.448Z,100829.34
2023-04-16T05:30:13.884Z,100837.31
2023-04-16T05:33:16.749Z,100838.22
2023-04-16T05:36:19.150Z,100844.47
2023-04-16T05:39:21.896Z,100847.13
2023-04-16T05:42:24.227Z,100847.16
2023-04-16T05:45:28.022Z,100847.25
2023-04-16T05:48:30.669Z,100845.47
2023-04-16T05:51:33.510Z,100841.88
2023-04-16T05:54:35.952Z,100844.56
2023-04-16T05:57:38.838Z,100852.59
2023-04-16T06:00:41.259Z,100848.19
2023-04-16T06:03:44.789Z,100857.06
2023-04-16T06:06:48.330Z,100857.88
2023-04-16T06:09:51.075Z,100863.22
2023-04-16T06:12:53.614Z,100864.09
2023-04-16T06:15:56.263Z,100865.00
2023-04-16T06:18:58.666Z,100867.69
2023-04-16T06:22:01.381Z,100870.44
2023-04-16T06:25:04.298Z,100874.91
2023-04-16T06:28:07.076Z,100875.88
2023-04-16T06:31:09.475Z,100884.75
2023-04-16T06:34:12.325Z,100890.03
2023-04-16T06:37:14.945Z,100884.72
2023-04-16T06:40:17.808Z,100886.41
2023-04-16T06:43:20.291Z,100886.53
2023-04-16T06:46:23.061Z,100881.28
2023-04-16T06:49:25.449Z,100876.84
2023-04-16T06:52:29.652Z,100875.09
2023-04-16T06:55:31.975Z,100886.59
2023-04-16T06:58:34.700Z,100889.19
2023-04-16T07:01:37.368Z,100889.19
2023-04-16T07:04:39.993Z,100879.47
2023-04-16T07:07:42.391Z,100891.00
2023-04-16T07:10:45.532Z,100897.22
2023-04-16T07:13:47.966Z,100891.00
2023-04-16T07:16:50.794Z,100894.59
2023-04-16T07:19:53.339Z,100881.34
2023-04-16T07:22:56.165Z,100887.53
2023-04-16T07:25:58.558Z,100886.69
2023-04-16T07:29:01.394Z,100880.47
2023-04-16T07:32:03.794Z,100888.41
2023-04-16T07:35:06.972Z,100889.34
2023-04-16T07:38:09.396Z,100891.91
2023-04-16T07:41:12.084Z,100902.59
2023-04-16T07:44:14.479Z,100903.53
2023-04-16T07:47:17.251Z,100908.81
2023-04-16T07:50:19.964Z,100915.97
2023-04-16T07:53:22.809Z,100925.72
2023-04-16T07:56:25.249Z,100927.53
2023-04-16T07:59:28.252Z,100924.94
2023-04-16T08:02:31.248Z,100929.38
2023-04-16T08:05:34.079Z,100933.81
2023-04-16T08:08:36.556Z,100932.81
2023-04-16T08:11:39.357Z,100932.78
2023-04-16T08:14:41.767Z,100933.81
2023-04-16T08:17:45.002Z,100938.22
2023-04-16T08:20:47.566Z,100936.47
2023-04-16T08:23:50.320Z,100954.19
2023-04-16T08:26:52.738Z,100948.00
2023-04-16T08:29:55.605Z,100953.16
2023-04-16T08:32:58.231Z,100962.94
2023-04-16T08:36:01.059Z,100953.16
2023-04-16T08:39:03.766Z,100962.03
2023-04-16T08:42:15.007Z,100964.72
2023-04-16T08:45:18.745Z,100972.72
2023-04-16T08:48:22.323Z,100984.25
2023-04-16T08:51:25.244Z,100991.28
2023-04-16T08:54:44.899Z,100996.63
2023-04-16T08:57:58.879Z,100997.53
2023-04-16T09:01:04.680Z,100999.25
2023-04-16T09:04:08.765Z,100993.03
2023-04-16T09:07:11.982Z,100996.59
2023-04-16T09:10:16.261Z,100999.28
2023-04-16T09:13:20.764Z,100995.75
2023-04-16T09:16:23.923Z,101000.19
2023-04-16T09:19:26.703Z,101007.34
2023-04-16T09:22:29.140Z,101005.66
2023-04-16T09:25:36.667Z,101004.78
2023-04-16T09:28:44.056Z,101005.72
2023-04-16T09:32:06.527Z,101000.41
2023-04-16T09:35:09.614Z,100997.75
2023-04-16T09:38:12.312Z,100998.66
2023-04-16T09:41:16.798Z,101005.75
2023-04-16T09:44:19.537Z,100996.88
2023-04-16T09:47:23.114Z,101018.19
2023-04-16T09:50:26.796Z,101004.88
2023-04-16T09:53:30.972Z,101011.09
2023-04-16T09:56:33.783Z,101005.78
2023-04-16T09:59:36.650Z,101016.41
2023-04-16T10:02:42.831Z,101022.63
2023-04-16T10:05:45.648Z,101025.28
2023-04-16T10:08:52.965Z,101021.75
2023-04-16T10:11:55.650Z,101023.53
2023-04-16T10:14:58.523Z,101023.53
2023-04-16T10:18:01.155Z,101014.66
2023-04-16T10:21:04.362Z,101022.66
2023-04-16T10:24:08.472Z,101018.19
2023-04-16T10:27:11.394Z,101019.06
2023-04-16T10:30:16.166Z,101027.06
2023-04-16T10:33:24.265Z,101031.50
2023-04-16T10:36:28.186Z,101032.38
2023-04-16T10:39:31.025Z,101023.50
2023-04-16T10:42:33.845Z,101034.16
2023-04-16T10:45:39.753Z,101035.00
2023-04-16T10:48:49.864Z,101031.44
2023-04-16T10:52:04.938Z,101036.78
2023-04-16T10:55:08.012Z,101043.84
2023-04-16T10:58:28.606Z,101050.03
2023-04-16T11:01:34.366Z,101051.84
2023-04-16T11:04:39.715Z,101047.34
2023-04-16T11:07:49.598Z,101049.16
2023-04-16T11:10:52.916Z,101050.88
2023-04-16T11:13:57.016Z,101051.75
2023-04-16T11:17:03.919Z,101049.91
2023-04-16T11:20:19.316Z,101051.66
2023-04-16T11:23:23.243Z,101045.41
2023-04-16T11:26:29.514Z,101048.00
2023-04-16T11:29:32.274Z,101055.09
2023-04-16T11:32:36.427Z,101045.22
2023-04-16T11:35:40.659Z,101052.28
2023-04-16T11:38:43.256Z,101047.75
2023-04-16T11:41:50.781Z,101056.53
2023-04-16T11:44:54.881Z,101051.09
2023-04-16T11:47:58.236Z,101042.25
2023-04-16T11:51:00.707Z,101045.81
2023-04-16T11:54:03.461Z,101039.59
2023-04-16T11:57:06.364Z,101050.13
2023-04-16T12:00:14.211Z,101050.94
2023-04-16T12:03:16.970Z,101056.41
2023-04-16T12:06:20.176Z,101053.25
2023-04-16T12:09:26.503Z,101065.66
2023-04-16T12:12:32.113Z,101064.78
2023-04-16T12:15:46.456Z,101063.84
2023-04-16T12:19:04.235Z,101049.53
2023-04-16T12:22:06.849Z,101054.84
2023-04-16T12:25:14.583Z,101049.34
2023-04-16T12:28:28.133Z,101051.94
2023-04-16T12:31:38.218Z,101045.66
2023-04-16T12:34:51.658Z,101043.84
2023-04-16T12:37:54.476Z,101041.13
2023-04-16T12:40:57.883Z,101038.34
2023-04-16T12:44:14.419Z,101039.06
2023-04-16T12:47:17.112Z,101036.34
2023-04-16T12:50:20.136Z,101036.31
2023-04-16T12:53:22.914Z,101034.72
2023-04-16T12:56:25.832Z,101040.94
2023-04-16T12:59:28.330Z,101038.97
2023-04-16T13:02:32.495Z,101042.47
2023-04-16T13:05:35.137Z,101035.94
2023-04-16T13:08:38.307Z,101034.25
2023-04-16T13:11:41.139Z,101034.03
2023-04-16T13:14:45.218Z,101027.72
2023-04-16T13:17:47.859Z,101023.59
2023-04-16T13:20:50.784Z,101018.53
2023-04-16T13:23:54.357Z,101018.34
2023-04-16T13:26:57.992Z,101017.19
2023-04-16T13:30:00.668Z,101017.97
2023-04-16T13:33:03.842Z,101023.03
2023-04-16T13:36:07.369Z,101027.06
2023-04-16T13:39:12.144Z,101024.44
2023-04-16T13:42:15.202Z,101030.50
2023-04-16T13:45:20.710Z,101032.09
2023-04-16T13:48:23.428Z,101034.19
2023-04-16T13:51:27.752Z,101037.56
2023-04-16T13:54:30.197Z,101035.78
2023-04-16T13:57:33.279Z,101043.03
2023-04-16T14:00:36.621Z,101040.47
2023-04-16T14:03:41.123Z,101039.75
2023-04-16T14:06:43.572Z,101038.13
2023-04-16T14:09:46.673Z,101034.84
2023-04-16T14:12:49.337Z,101037.44
2023-04-16T14:15:56.458Z,101039.16
2023-04-16T14:18:58.912Z,101032.22
2023-04-16T14:22:02.085Z,101033.94
2023-04-16T14:25:05.406Z,101043.56
2023-04-16T14:28:09.704Z,101040.63
2023-04-16T14:31:12.324Z,101036.59
2023-04-16T14:34:17.399Z,101035.41
2023-04-16T14:37:20.551Z,101035.94
2023-04-16T14:40:23.656Z,101043.00
2023-04-16T14:43:26.826Z,101034.78
2023-04-16T14:46:30.914Z,101037.91
2023-04-16T14:49:34.055Z,101040.31
2023-04-16T14:52:36.805Z,101044.94
2023-04-16T14:55:39.428Z,101035.00
2023-04-16T14:58:43.587Z,101051.09
2023-04-16T15:01:46.580Z,101052.03
2023-04-16T15:04:50.103Z,101050.28
2023-04-16T15:07:53.053Z,101048.88
2023-04-16T15:10:56.574Z,101050.31
2023-04-16T15:13:59.176Z,101061.63
2023-04-16T15:17:02.297Z,101056.53
2023-04-16T15:20:08.463Z,101048.56
2023-04-16T15:23:11.377Z,101056.47
2023-04-16T15:26:14.507Z,101055.59
2023-04-16T15:29:18.874Z,101066.28
2023-04-16T15:32:22.124Z,101062.97
2023-04-16T15:35:25.924Z,101072.34
2023-04-16T15:38:30.991Z,101069.97
2023-04-16T15:41:37.046Z,101068.47
2023-04-16T15:44:40.913Z,101086.25
2023-04-16T15:47:48.663Z,101073.03
2023-04-16T15:50:53.527Z,101073.97
2023-04-16T15:53:58.004Z,101077.50
2023-04-16T15:57:01.021Z,101077.44
2023-04-16T16:00:19.266Z,101073.03
2023-04-16T16:03:23.117Z,101080.97
2023-04-16T16:06:27.887Z,101079.06
2023-04-16T16:09:31.402Z,101091.69
2023-04-16T16:12:35.642Z,101093.66
2023-04-16T16:15:43.024Z,101097.31
2023-04-16T16:18:46.691Z,101097.59
2023-04-16T16:21:49.901Z,101096.75
2023-04-16T16:25:00.914Z,101105.81
2023-04-16T16:28:06.964Z,101104.09
2023-04-16T16:31:12.857Z,101120.50
2023-04-16T16:34:20.757Z,101121.69
2023-04-16T16:37:25.017Z,101122.59
2023-04-16T16:40:29.115Z,101133.38
2023-04-16T16:43:33.544Z,101127.28
2023-04-16T16:46:37.831Z,101134.50
2023-04-16T16:49:41.701Z,101131.91
2023-04-16T16:52:46.745Z,101138.19
2023-04-16T16:55:52.295Z,101136.59
2023-04-16T16:58:56.053Z,101142.84
2023-04-16T17:02:00.493Z,101143.88
2023-04-16T17:05:06.562Z,101133.16
2023-04-16T17:08:12.867Z,101146.63
2023-04-16T17:11:16.986Z,101150.25
2023-04-16T17:14:21.578Z,101159.19
2023-04-16T17:17:24.785Z,101157.44
2023-04-16T17:20:30.368Z,101163.72
2023-04-16T17:23:34.191Z,101163.72
2023-04-16T17:26:38.193Z,101168.16
2023-04-16T17:29:41.636Z,101168.22
2023-04-16T17:32:45.723Z,101169.13
2023-04-16T17:35:49.351Z,101167.34
2023-04-16T17:38:54.769Z,101171.81
2023-04-16T17:42:05.144Z,101178.03
2023-04-16T17:45:09.635Z,101177.16
2023-04-16T17:48:14.553Z,101189.59
2023-04-16T17:51:18.446Z,101189.66
2023-04-16T17:54:21.692Z,101195.84
2023-04-16T17:57:27.079Z,101200.31
2023-04-16T18:00:32.400Z,101202.09
2023-04-16T18:03:37.867Z,101197.63
2023-04-16T18:06:41.531Z,101198.50
2023-04-16T18:09:47.406Z,101211.00
2023-04-16T18:12:55.133Z,101211.00
2023-04-16T18:16:03.491Z,101210.09
2023-04-16T18:19:08.014Z,101202.97
2023-04-16T18:22:13.899Z,101211.00
2023-04-16T18:25:17.108Z,101213.66
2023-04-16T18:28:21.306Z,101221.66
2023-04-16T18:31:25.231Z,101225.22
2023-04-16T18:34:31.311Z,101226.03
2023-04-16T18:37:36.803Z,101216.28
2023-04-16T18:40:42.698Z,101221.59
2023-04-16T18:43:47.650Z,101221.56
2023-04-16T18:46:51.598Z,101219.81
2023-04-16T18:49:57.920Z,101226.91
2023-04-16T18:53:02.615Z,101226.91
2023-04-16T18:56:06.399Z,101226.88
2023-04-16T18:59:12.168Z,101231.28
2023-04-16T19:02:17.720Z,101225.06
2023-04-16T19:05:24.992Z,101230.41
2023-04-16T19:08:28.856Z,101236.56
2023-04-16T19:11:38.425Z,101231.22
2023-04-16T19:14:42.015Z,101219.63
2023-04-16T19:17:46.226Z,101223.13
2023-04-16T19:20:51.295Z,101221.28
2023-04-16T19:23:57.275Z,101229.25
2023-04-16T19:27:01.944Z,101223.03
2023-04-16T19:30:08.216Z,101223.84
2023-04-16T19:33:12.284Z,101225.59
2023-04-16T19:36:17.068Z,101230.91
2023-04-16T19:39:21.694Z,101227.34
2023-04-16T19:42:25.929Z,101225.53
2023-04-16T19:45:29.971Z,101221.91
2023-04-16T19:48:34.022Z,101234.28
2023-04-16T19:51:37.669Z,101238.59
2023-04-16T19:54:42.843Z,101232.31
2023-04-16T19:57:48.412Z,101234.97
2023-04-16T20:00:53.027Z,101228.75
2023-04-16T20:03:57.249Z,101234.03
2023-04-16T20:07:01.344Z,101227.81
2023-04-16T20:10:05.153Z,101229.50
2023-04-16T20:13:12.363Z,101227.69
2023-04-16T20:16:18.229Z,101233.84
2023-04-16T20:19:22.323Z,101232.13
2023-04-16T20:22:25.919Z,101230.38
2023-04-16T20:25:29.861Z,101230.34
2023-04-16T20:28:33.249Z,101232.03
2023-04-16T20:31:37.319Z,101231.16
2023-04-16T20:34:41.408Z,101236.44
2023-04-16T20:37:45.108Z,101241.72
2023-04-16T20:40:47.644Z,101232.00
2023-04-16T20:43:53.592Z,101235.50
2023-04-16T20:46:57.339Z,101243.47
2023-04-16T20:50:02.032Z,101237.31
2023-04-16T20:53:05.163Z,101239.88
2023-04-16T20:56:09.303Z,101239.88
2023-04-16T20:59:13.582Z,101241.63
2023-04-16T21:02:16.895Z,101238.94
2023-04-16T21:05:21.593Z,101246.09
2023-04-16T21:08:24.923Z,101235.50
2023-04-16T21:11:29.519Z,101241.69
2023-04-16T21:14:32.607Z,101239.88
2023-04-16T21:17:35.159Z,101242.56
2023-04-16T21:20:39.439Z,101240.81
2023-04-16T21:23:41.999Z,101235.47
2023-04-16T21:26:44.874Z,101234.66
2023-04-16T21:29:47.553Z,101228.41
2023-04-16T21:32:50.851Z,101233.72
2023-04-16T21:35:53.891Z,101229.25
2023-04-16T21:38:56.768Z,101226.56
2023-04-16T21:41:59.324Z,101232.69
2023-04-16T21:45:02.279Z,101232.69
2023-04-16T21:48:05.197Z,101226.47
2023-04-16T21:51:08.478Z,101227.25
2023-04-16T21:54:11.101Z,101225.50
2023-04-16T21:57:13.981Z,101229.97
2023-04-16T22:00:17.737Z,101232.63
2023-04-16T22:03:26.663Z,101234.31
2023-04-16T22:06:29.442Z,101232.56
2023-04-16T22:09:35.673Z,101222.81
2023-04-16T22:12:38.116Z,101230.84
2023-04-16T22:15:41.589Z,101224.69
2023-04-16T22:18:44.054Z,101228.25
2023-04-16T22:21:48.128Z,101233.53
2023-04-16T22:24:50.597Z,101231.78
2023-04-16T22:27:53.391Z,101228.25
2023-04-16T22:30:56.737Z,101224.72
2023-04-16T22:34:00.591Z,101226.44
2023-04-16T22:37:04.866Z,101223.75
2023-04-16T22:40:11.877Z,101235.22
2023-04-16T22:43:14.421Z,101218.41
2023-04-16T22:46:20.019Z,101224.53
2023-04-16T22:49:22.648Z,101228.06
2023-04-16T22:52:25.923Z,101232.44
2023-04-16T22:55:28.314Z,101238.66
2023-04-16T22:58:31.712Z,101223.53
2023-04-16T23:01:35.385Z,101226.16
2023-04-16T23:04:38.760Z,101234.97
2023-04-16T23:07:41.704Z,101226.06
2023-04-16T23:10:44.650Z,101227.72
2023-04-16T23:13:47.294Z,101225.88
2023-04-16T23:16:50.739Z,101226.66
2023-04-16T23:19:53.438Z,101222.06
2023-04-16T23:22:56.424Z,101226.38
2023-04-16T23:25:59.070Z,101227.22
2023-04-16T23:29:02.127Z,101225.44
2023-04-16T23:32:04.781Z,101228.94
2023-04-16T23:35:08.197Z,101229.72
2023-04-16T23:38:10.885Z,101225.22
2023-04-16T23:41:13.600Z,101220.75
2023-04-16T23:44:16.828Z,101219.84
2023-04-16T23:47:19.844Z,101228.66
2023-04-16T23:50:22.395Z,101212.66
2023-04-16T23:53:25.833Z,101216.09
2023-04-16T23:56:28.402Z,101208.94
2023-04-16T23:59:31.666Z,101206.97
